sensor_id;sensor_type;location;lat;lon;timestamp;pressure;altitude;pressure_sealevel;temperature;humidity
29825;BME280;16713;52.916;12.834;2022-07-01T00:01:00;100554.47;;;19.27;85.28
29825;BME280;16713;52.916;12.834;2022-07-01T00:03:27;100553.00;;;19.19;85.60
29825;BME280;16713;52.916;12.834;2022-07-01T00:05:53;100546.63;;;19.19;85.14
29825;BME280;16713;52.916;12.834;2022-07-01T00:08:20;100555.84;;;19.12;85.43
29825;BME280;16713;52.916;12.834;2022-07-01T00:10:46;100548.34;;;19.09;85.21
29825;BME280;16713;52.916;12.834;2022-07-01T00:13:13;100551.63;;;19.01;85.16
29825;BME280;16713;52.916;12.834;2022-07-01T00:15:39;100544.72;;;18.82;85.92
29825;BME280;16713;52.916;12.834;2022-07-01T00:18:06;100550.13;;;18.93;86.38
29825;BME280;16713;52.916;12.834;2022-07-01T00:20:33;100547.81;;;18.88;86.33
29825;BME280;16713;52.916;12.834;2022-07-01T00:23:00;100551.38;;;18.88;85.81
29825;BME280;16713;52.916;12.834;2022-07-01T00:25:26;100548.19;;;18.90;86.19
29825;BME280;16713;52.916;12.834;2022-07-01T00:27:53;100550.13;;;18.93;85.80
29825;BME280;16713;52.916;12.834;2022-07-01T00:30:19;100539.13;;;18.86;86.10
29825;BME280;16713;52.916;12.834;2022-07-01T00:32:46;100536.69;;;18.88;86.19
29825;BME280;16713;52.916;12.834;2022-07-01T00:35:13;100537.06;;;18.90;86.26
29825;BME280;16713;52.916;12.834;2022-07-01T00:37:39;100535.94;;;18.83;86.24
29825;BME280;16713;52.916;12.834;2022-07-01T00:40:06;100539.72;;;19.00;85.39
29825;BME280;16713;52.916;12.834;2022-07-01T00:42:38;100530.28;;;18.91;86.90
29825;BME280;16713;52.916;12.834;2022-07-01T00:45:06;100531.06;;;18.95;86.52
29825;BME280;16713;52.916;12.834;2022-07-01T00:47:33;100535.66;;;19.08;85.92
29825;BME280;16713;52.916;12.834;2022-07-01T00:50:00;100530.59;;;19.00;85.80
29825;BME280;16713;52.916;12.834;2022-07-01T00:52:26;100521.16;;;18.94;87.02
29825;BME280;16713;52.916;12.834;2022-07-01T00:54:56;100521.19;;;18.90;86.83
29825;BME280;16713;52.916;12.834;2022-07-01T00:57:30;100518.47;;;18.83;86.34
29825;BME280;16713;52.916;12.834;2022-07-01T00:59:57;100522.44;;;18.86;86.73
29825;BME280;16713;52.916;12.834;2022-07-01T01:02:23;100512.22;;;18.75;86.46
29825;BME280;16713;52.916;12.834;2022-07-01T01:04:50;100517.69;;;18.82;86.18
29825;BME280;16713;52.916;12.834;2022-07-01T01:07:16;100525.75;;;18.73;87.35
29825;BME280;16713;52.916;12.834;2022-07-01T01:09:43;100529.03;;;18.61;87.58
29825;BME280;16713;52.916;12.834;2022-07-01T01:12:11;100534.50;;;18.68;86.71
29825;BME280;16713;52.916;12.834;2022-07-01T01:14:48;100539.28;;;18.68;87.48
29825;BME280;16713;52.916;12.834;2022-07-01T01:17:16;100542.56;;;18.56;88.59
29825;BME280;16713;52.916;12.834;2022-07-01T01:19:44;100532.22;;;18.60;87.90
29825;BME280;16713;52.916;12.834;2022-07-01T01:22:14;100525.91;;;18.56;88.45
29825;BME280;16713;52.916;12.834;2022-07-01T01:24:42;100525.47;;;18.61;87.43
29825;BME280;16713;52.916;12.834;2022-07-01T01:27:11;100526.16;;;18.72;88.25
29825;BME280;16713;52.916;12.834;2022-07-01T01:29:38;100527.00;;;18.65;87.70
29825;BME280;16713;52.916;12.834;2022-07-01T01:32:05;100537.06;;;18.49;88.28
29825;BME280;16713;52.916;12.834;2022-07-01T01:34:34;100531.47;;;18.56;88.13
29825;BME280;16713;52.916;12.834;2022-07-01T01:37:05;100526.59;;;18.63;87.96
29825;BME280;16713;52.916;12.834;2022-07-01T01:39:32;100517.91;;;18.61;88.14
29825;BME280;16713;52.916;12.834;2022-07-01T01:41:58;100517.53;;;18.59;87.39
29825;BME280;16713;52.916;12.834;2022-07-01T01:44:25;100506.00;;;18.61;87.76
29825;BME280;16713;52.916;12.834;2022-07-01T01:46:52;100506.53;;;18.49;87.84
29825;BME280;16713;52.916;12.834;2022-07-01T01:49:18;100502.97;;;18.48;87.69
29825;BME280;16713;52.916;12.834;2022-07-01T01:51:45;100494.63;;;18.52;87.62
29825;BME280;16713;52.916;12.834;2022-07-01T01:54:11;100502.13;;;18.55;88.04
29825;BME280;16713;52.916;12.834;2022-07-01T01:56:38;100487.47;;;18.51;87.23
29825;BME280;16713;52.916;12.834;2022-07-01T01:59:04;100491.88;;;18.48;87.25
29825;BME280;16713;52.916;12.834;2022-07-01T02:01:31;100493.41;;;18.53;87.88
29825;BME280;16713;52.916;12.834;2022-07-01T02:03:57;100497.44;;;18.48;87.99
29825;BME280;16713;52.916;12.834;2022-07-01T02:06:25;100493.44;;;18.49;87.93
29825;BME280;16713;52.916;12.834;2022-07-01T02:08:52;100498.19;;;18.49;87.23
29825;BME280;16713;52.916;12.834;2022-07-01T02:11:18;100497.91;;;18.40;87.97
29825;BME280;16713;52.916;12.834;2022-07-01T02:13:45;100499.38;;;18.51;88.04
29825;BME280;16713;52.916;12.834;2022-07-01T02:16:12;100491.06;;;18.48;87.45
29825;BME280;16713;52.916;12.834;2022-07-01T02:18:39;100487.91;;;18.46;88.33
29825;BME280;16713;52.916;12.834;2022-07-01T02:21:05;100487.91;;;18.46;88.11
29825;BME280;16713;52.916;12.834;2022-07-01T02:23:36;100482.78;;;18.44;87.95
29825;BME280;16713;52.916;12.834;2022-07-01T02:26:03;100484.81;;;18.40;88.38
29825;BME280;16713;52.916;12.834;2022-07-01T02:28:29;100490.38;;;18.40;87.91
29825;BME280;16713;52.916;12.834;2022-07-01T02:30:56;100491.06;;;18.48;87.50
29825;BME280;16713;52.916;12.834;2022-07-01T02:33:23;100486.75;;;18.43;87.37
29825;BME280;16713;52.916;12.834;2022-07-01T02:35:49;100490.72;;;18.42;87.54
29825;BME280;16713;52.916;12.834;2022-07-01T02:38:16;100500.19;;;18.48;87.57
29825;BME280;16713;52.916;12.834;2022-07-01T02:40:43;100506.25;;;18.40;87.84
29825;BME280;16713;52.916;12.834;2022-07-01T02:43:09;100501.56;;;18.30;88.98
29825;BME280;16713;52.916;12.834;2022-07-01T02:45:36;100509.47;;;18.31;88.12
29825;BME280;16713;52.916;12.834;2022-07-01T02:48:03;100507.81;;;18.41;88.13
29825;BME280;16713;52.916;12.834;2022-07-01T02:50:30;100497.63;;;18.31;89.28
29825;BME280;16713;52.916;12.834;2022-07-01T02:52:56;100501.16;;;18.31;89.22
29825;BME280;16713;52.916;12.834;2022-07-01T02:55:23;100500.03;;;18.25;88.25
29825;BME280;16713;52.916;12.834;2022-07-01T02:57:50;100513.22;;;18.14;89.46
29825;BME280;16713;52.916;12.834;2022-07-01T03:00:20;100506.06;;;18.17;89.30
29825;BME280;16713;52.916;12.834;2022-07-01T03:02:47;100511.25;;;18.15;89.18
29825;BME280;16713;52.916;12.834;2022-07-01T03:05:14;100507.03;;;18.00;89.06
29825;BME280;16713;52.916;12.834;2022-07-01T03:07:41;100507.38;;;18.05;89.13
29825;BME280;16713;52.916;12.834;2022-07-01T03:10:08;100501.72;;;18.16;89.66
29825;BME280;16713;52.916;12.834;2022-07-01T03:12:35;100498.25;;;18.05;89.68
29825;BME280;16713;52.916;12.834;2022-07-01T03:15:09;100500.50;;;18.17;89.38
29825;BME280;16713;52.916;12.834;2022-07-01T03:17:38;100496.13;;;18.19;89.71
29825;BME280;16713;52.916;12.834;2022-07-01T03:20:07;100500.03;;;18.25;88.56
29825;BME280;16713;52.916;12.834;2022-07-01T03:22:35;100505.19;;;18.27;89.35
29825;BME280;16713;52.916;12.834;2022-07-01T03:25:03;100492.47;;;18.29;88.74
29825;BME280;16713;52.916;12.834;2022-07-01T03:27:30;100494.44;;;18.29;89.47
29825;BME280;16713;52.916;12.834;2022-07-01T03:29:57;100498.72;;;18.37;88.85
29825;BME280;16713;52.916;12.834;2022-07-01T03:32:24;100493.19;;;18.37;88.69
29825;BME280;16713;52.916;12.834;2022-07-01T03:34:51;100506.25;;;18.40;88.45
29825;BME280;16713;52.916;12.834;2022-07-01T03:37:20;100509.44;;;18.38;89.09
29825;BME280;16713;52.916;12.834;2022-07-01T03:39:47;100507.31;;;18.49;88.84
29825;BME280;16713;52.916;12.834;2022-07-01T03:42:14;100509.38;;;18.45;88.58
29825;BME280;16713;52.916;12.834;2022-07-01T03:44:40;100514.53;;;18.43;88.91
29825;BME280;16713;52.916;12.834;2022-07-01T03:47:07;100522.84;;;18.47;88.73
29825;BME280;16713;52.916;12.834;2022-07-01T03:49:35;100517.41;;;18.33;89.53
29825;BME280;16713;52.916;12.834;2022-07-01T03:52:03;100518.47;;;18.46;89.45
29825;BME280;16713;52.916;12.834;2022-07-01T03:54:30;100514.81;;;18.52;89.11
29825;BME280;16713;52.916;12.834;2022-07-01T03:57:02;100521.50;;;18.58;88.40
29825;BME280;16713;52.916;12.834;2022-07-01T03:59:32;100518.34;;;18.60;88.16
29825;BME280;16713;52.916;12.834;2022-07-01T04:01:59;100525.78;;;18.66;88.05
29825;BME280;16713;52.916;12.834;2022-07-01T04:04:26;100526.19;;;18.65;88.76
29825;BME280;16713;52.916;12.834;2022-07-01T04:06:55;100530.53;;;18.69;88.07
29825;BME280;16713;52.916;12.834;2022-07-01T04:09:24;100526.41;;;18.84;87.97
29825;BME280;16713;52.916;12.834;2022-07-01T04:11:52;100521.63;;;18.85;89.01
29825;BME280;16713;52.916;12.834;2022-07-01T04:14:19;100519.50;;;18.96;87.88
29825;BME280;16713;52.916;12.834;2022-07-01T04:16:47;100521.84;;;19.01;87.70
29825;BME280;16713;52.916;12.834;2022-07-01T04:19:14;100523.38;;;19.06;88.23
29825;BME280;16713;52.916;12.834;2022-07-01T04:21:41;100519.09;;;18.98;88.48
29825;BME280;16713;52.916;12.834;2022-07-01T04:24:28;100532.31;;;19.20;87.34
29825;BME280;16713;52.916;12.834;2022-07-01T04:26:59;100529.50;;;19.24;86.73
29825;BME280;16713;52.916;12.834;2022-07-01T04:29:27;100547.69;;;19.28;87.40
29825;BME280;16713;52.916;12.834;2022-07-01T04:31:56;100590.09;;;19.36;87.18
29825;BME280;16713;52.916;12.834;2022-07-01T04:34:24;100590.78;;;19.47;86.41
29825;BME280;16713;52.916;12.834;2022-07-01T04:36:51;100553.38;;;19.51;86.75
29825;BME280;16713;52.916;12.834;2022-07-01T04:39:18;100535.38;;;19.59;86.94
29825;BME280;16713;52.916;12.834;2022-07-01T04:41:45;100593.13;;;19.78;85.64
29825;BME280;16713;52.916;12.834;2022-07-01T04:44:37;100609.00;;;19.81;84.91
29825;BME280;16713;52.916;12.834;2022-07-01T04:47:09;100576.16;;;19.69;85.96
29825;BME280;16713;52.916;12.834;2022-07-01T04:49:36;100618.38;;;19.64;86.22
29825;BME280;16713;52.916;12.834;2022-07-01T04:52:03;100622.31;;;19.67;86.06
29825;BME280;16713;52.916;12.834;2022-07-01T04:54:29;100587.34;;;19.66;86.30
29825;BME280;16713;52.916;12.834;2022-07-01T04:56:56;100593.56;;;19.77;85.44
29825;BME280;16713;52.916;12.834;2022-07-01T04:59:22;100618.19;;;19.78;85.81
29825;BME280;16713;52.916;12.834;2022-07-01T05:01:49;100593.44;;;19.84;85.52
29825;BME280;16713;52.916;12.834;2022-07-01T05:04:16;100614.97;;;19.80;85.29
29825;BME280;16713;52.916;12.834;2022-07-01T05:06:44;100617.50;;;19.97;85.59
29825;BME280;16713;52.916;12.834;2022-07-01T05:09:11;100589.59;;;20.01;85.34
29825;BME280;16713;52.916;12.834;2022-07-01T05:11:38;100615.00;;;20.03;86.02
29825;BME280;16713;52.916;12.834;2022-07-01T05:14:06;100618.44;;;20.14;85.59
29825;BME280;16713;52.916;12.834;2022-07-01T05:16:33;100612.78;;;20.21;84.47
29825;BME280;16713;52.916;12.834;2022-07-01T05:19:01;100614.56;;;20.35;84.49
29825;BME280;16713;52.916;12.834;2022-07-01T05:21:46;100613.16;;;20.46;83.98
29825;BME280;16713;52.916;12.834;2022-07-01T05:24:23;100622.66;;;20.72;83.54
29825;BME280;16713;52.916;12.834;2022-07-01T05:26:50;100622.34;;;20.66;82.39
29825;BME280;16713;52.916;12.834;2022-07-01T05:29:16;100589.00;;;20.82;82.34
29825;BME280;16713;52.916;12.834;2022-07-01T05:31:43;100619.16;;;20.91;82.90
29825;BME280;16713;52.916;12.834;2022-07-01T05:34:10;100619.25;;;20.84;82.20
29825;BME280;16713;52.916;12.834;2022-07-01T05:36:36;100628.22;;;20.95;80.96
29825;BME280;16713;52.916;12.834;2022-07-01T05:39:03;100638.06;;;20.80;81.24
29825;BME280;16713;52.916;12.834;2022-07-01T05:41:29;100642.72;;;20.86;81.18
29825;BME280;16713;52.916;12.834;2022-07-01T05:43:56;100644.41;;;20.80;81.08
29825;BME280;16713;52.916;12.834;2022-07-01T05:46:23;100664.41;;;20.75;81.93
29825;BME280;16713;52.916;12.834;2022-07-01T05:48:49;100660.28;;;20.83;81.98
29825;BME280;16713;52.916;12.834;2022-07-01T05:51:16;100673.97;;;20.74;82.63
29825;BME280;16713;52.916;12.834;2022-07-01T05:53:42;100666.03;;;20.73;82.64
29825;BME280;16713;52.916;12.834;2022-07-01T05:56:10;100656.47;;;20.74;83.30
29825;BME280;16713;52.916;12.834;2022-07-01T05:58:36;100658.16;;;20.68;82.84
29825;BME280;16713;52.916;12.834;2022-07-01T06:01:03;100662.19;;;20.67;82.74
29825;BME280;16713;52.916;12.834;2022-07-01T06:03:34;100670.47;;;20.93;82.93
29825;BME280;16713;52.916;12.834;2022-07-01T06:06:01;100663.84;;;20.84;82.33
29825;BME280;16713;52.916;12.834;2022-07-01T06:08:28;100688.28;;;20.76;82.28
29825;BME280;16713;52.916;12.834;2022-07-01T06:10:54;100690.53;;;20.85;82.11
29825;BME280;16713;52.916;12.834;2022-07-01T06:13:21;100698.09;;;20.84;82.48
29825;BME280;16713;52.916;12.834;2022-07-01T06:15:47;100703.38;;;20.79;82.45
29825;BME280;16713;52.916;12.834;2022-07-01T06:18:14;100690.94;;;20.83;81.89
29825;BME280;16713;52.916;12.834;2022-07-01T06:20:40;100700.03;;;20.91;81.80
29825;BME280;16713;52.916;12.834;2022-07-01T06:23:07;100695.56;;;20.93;82.36
29825;BME280;16713;52.916;12.834;2022-07-01T06:25:34;100691.06;;;21.22;81.72
29825;BME280;16713;52.916;12.834;2022-07-01T06:28:00;100690.19;;;21.25;81.02
29825;BME280;16713;52.916;12.834;2022-07-01T06:30:27;100687.84;;;21.43;80.24
29825;BME280;16713;52.916;12.834;2022-07-01T06:32:53;100686.19;;;21.46;80.62
29825;BME280;16713;52.916;12.834;2022-07-01T06:35:20;100690.16;;;21.48;78.82
29825;BME280;16713;52.916;12.834;2022-07-01T06:37:46;100693.16;;;21.58;79.01
29825;BME280;16713;52.916;12.834;2022-07-01T06:40:20;100702.53;;;21.67;78.31
29825;BME280;16713;52.916;12.834;2022-07-01T06:42:46;100705.78;;;21.66;78.37
29825;BME280;16713;52.916;12.834;2022-07-01T06:45:13;100694.47;;;21.73;77.81
29825;BME280;16713;52.916;12.834;2022-07-01T06:47:40;100688.00;;;21.76;76.91
29825;BME280;16713;52.916;12.834;2022-07-01T06:50:07;100685.16;;;21.79;75.77
29825;BME280;16713;52.916;12.834;2022-07-01T06:52:33;100690.72;;;21.79;75.65
29825;BME280;16713;52.916;12.834;2022-07-01T06:55:00;100689.94;;;21.79;74.64
29825;BME280;16713;52.916;12.834;2022-07-01T06:57:27;100684.28;;;21.82;74.09
29825;BME280;16713;52.916;12.834;2022-07-01T06:59:54;100683.41;;;21.85;74.36
29825;BME280;16713;52.916;12.834;2022-07-01T07:02:21;100686.06;;;21.92;73.43
29825;BME280;16713;52.916;12.834;2022-07-01T07:04:54;100675.72;;;21.73;73.75
29825;BME280;16713;52.916;12.834;2022-07-01T07:07:27;100669.88;;;21.84;73.83
29825;BME280;16713;52.916;12.834;2022-07-01T07:09:53;100676.88;;;21.92;73.80
29825;BME280;16713;52.916;12.834;2022-07-01T07:12:23;100676.06;;;22.11;73.15
29825;BME280;16713;52.916;12.834;2022-07-01T07:14:50;100683.69;;;22.26;72.40
29825;BME280;16713;52.916;12.834;2022-07-01T07:17:16;100693.59;;;22.47;72.37
29825;BME280;16713;52.916;12.834;2022-07-01T07:19:43;100698.22;;;22.53;72.16
29825;BME280;16713;52.916;12.834;2022-07-01T07:22:09;100702.31;;;22.65;71.48
29825;BME280;16713;52.916;12.834;2022-07-01T07:24:36;100706.19;;;22.71;70.91
29825;BME280;16713;52.916;12.834;2022-07-01T07:27:04;100706.63;;;23.02;70.95
29825;BME280;16713;52.916;12.834;2022-07-01T07:29:30;100715.06;;;23.14;69.25
29825;BME280;16713;52.916;12.834;2022-07-01T07:31:57;100719.94;;;23.26;68.26
29825;BME280;16713;52.916;12.834;2022-07-01T07:34:24;100724.19;;;23.31;68.09
29825;BME280;16713;52.916;12.834;2022-07-01T07:36:50;100733.84;;;23.30;67.16
29825;BME280;16713;52.916;12.834;2022-07-01T07:39:17;100733.44;;;23.44;66.88
29825;BME280;16713;52.916;12.834;2022-07-01T07:41:44;100729.69;;;23.50;66.19
29825;BME280;16713;52.916;12.834;2022-07-01T07:44:10;100739.41;;;23.46;64.88
29825;BME280;16713;52.916;12.834;2022-07-01T07:46:37;100751.66;;;23.52;64.80
29825;BME280;16713;52.916;12.834;2022-07-01T07:49:04;100748.84;;;23.52;65.46
29825;BME280;16713;52.916;12.834;2022-07-01T07:51:30;100750.88;;;23.51;66.47
29825;BME280;16713;52.916;12.834;2022-07-01T07:53:57;100752.59;;;23.45;66.14
29825;BME280;16713;52.916;12.834;2022-07-01T07:56:23;100744.72;;;23.40;66.28
29825;BME280;16713;52.916;12.834;2022-07-01T07:58:50;100749.56;;;23.56;65.41
29825;BME280;16713;52.916;12.834;2022-07-01T08:01:16;100737.66;;;23.36;66.73
29825;BME280;16713;52.916;12.834;2022-07-01T08:03:43;100755.91;;;23.56;65.92
29825;BME280;16713;52.916;12.834;2022-07-01T08:06:11;100762.31;;;23.57;66.03
29825;BME280;16713;52.916;12.834;2022-07-01T08:08:38;100759.06;;;23.58;65.89
29825;BME280;16713;52.916;12.834;2022-07-01T08:11:05;100764.63;;;23.30;65.94
29825;BME280;16713;52.916;12.834;2022-07-01T08:13:32;100762.19;;;23.32;65.51
29825;BME280;16713;52.916;12.834;2022-07-01T08:15:59;100754.66;;;23.29;65.99
29825;BME280;16713;52.916;12.834;2022-07-01T08:18:26;100753.34;;;23.33;67.80
29825;BME280;16713;52.916;12.834;2022-07-01T08:20:52;100758.50;;;23.35;67.85
29825;BME280;16713;52.916;12.834;2022-07-01T08:23:20;100767.69;;;23.51;67.35
29825;BME280;16713;52.916;12.834;2022-07-01T08:25:48;100767.69;;;23.35;67.59
29825;BME280;16713;52.916;12.834;2022-07-01T08:28:15;100767.16;;;23.24;66.87
29825;BME280;16713;52.916;12.834;2022-07-01T08:30:42;100764.69;;;23.42;66.67
29825;BME280;16713;52.916;12.834;2022-07-01T08:33:09;100766.91;;;23.35;65.79
29825;BME280;16713;52.916;12.834;2022-07-01T08:35:36;100781.69;;;23.35;65.10
29825;BME280;16713;52.916;12.834;2022-07-01T08:38:03;100777.97;;;23.10;66.06
29825;BME280;16713;52.916;12.834;2022-07-01T08:40:31;100780.31;;;23.11;66.05
29825;BME280;16713;52.916;12.834;2022-07-01T08:42:59;100790.38;;;23.09;66.72
29825;BME280;16713;52.916;12.834;2022-07-01T08:45:27;100799.28;;;23.04;66.27
29825;BME280;16713;52.916;12.834;2022-07-01T08:47:55;100796.16;;;22.85;66.36
29825;BME280;16713;52.916;12.834;2022-07-01T08:50:34;100803.75;;;23.01;66.65
29825;BME280;16713;52.916;12.834;2022-07-01T08:53:01;100808.91;;;23.03;66.55
29825;BME280;16713;52.916;12.834;2022-07-01T08:55:27;100801.41;;;23.00;67.27
29825;BME280;16713;52.916;12.834;2022-07-01T08:57:54;100818.63;;;23.14;66.00
29825;BME280;16713;52.916;12.834;2022-07-01T09:00:21;100830.34;;;23.25;66.15
29825;BME280;16713;52.916;12.834;2022-07-01T09:03:02;100833.56;;;23.24;67.23
29825;BME280;16713;52.916;12.834;2022-07-01T09:05:30;100834.63;;;23.30;68.40
29825;BME280;16713;52.916;12.834;2022-07-01T09:08:00;100832.19;;;23.16;69.04
29825;BME280;16713;52.916;12.834;2022-07-01T09:10:27;100829.47;;;22.96;68.55
29825;BME280;16713;52.916;12.834;2022-07-01T09:13:03;100837.53;;;22.74;70.09
29825;BME280;16713;52.916;12.834;2022-07-01T09:15:31;100839.50;;;22.22;71.60
29825;BME280;16713;52.916;12.834;2022-07-01T09:18:11;100848.31;;;22.21;71.15
29825;BME280;16713;52.916;12.834;2022-07-01T09:20:41;100845.06;;;22.03;72.07
29825;BME280;16713;52.916;12.834;2022-07-01T09:23:11;100857.06;;;21.80;72.83
29825;BME280;16713;52.916;12.834;2022-07-01T09:25:41;100854.31;;;21.57;73.71
29825;BME280;16713;52.916;12.834;2022-07-01T09:28:22;100842.06;;;21.47;73.96
29825;BME280;16713;52.916;12.834;2022-07-01T09:30:55;100850.56;;;21.17;74.32
29825;BME280;16713;52.916;12.834;2022-07-01T09:35:51;100864.66;;;20.80;76.00
29825;BME280;16713;52.916;12.834;2022-07-01T09:38:21;100856.75;;;20.75;76.67
29825;BME280;16713;52.916;12.834;2022-07-01T09:41:03;100835.41;;;20.35;77.29
29825;BME280;16713;52.916;12.834;2022-07-01T09:43:30;100850.63;;;20.31;77.52
29825;BME280;16713;52.916;12.834;2022-07-01T09:45:59;100847.31;;;20.05;78.40
29825;BME280;16713;52.916;12.834;2022-07-01T09:51:05;100832.91;;;20.14;78.52
29825;BME280;16713;52.916;12.834;2022-07-01T09:53:39;100825.69;;;19.83;80.44
29825;BME280;16713;52.916;12.834;2022-07-01T09:56:06;100844.13;;;19.70;80.36
29825;BME280;16713;52.916;12.834;2022-07-01T09:58:33;100871.66;;;19.61;80.63
29825;BME280;16713;52.916;12.834;2022-07-01T10:01:00;100882.34;;;19.66;81.70
29825;BME280;16713;52.916;12.834;2022-07-01T10:03:31;100892.34;;;19.60;82.75
29825;BME280;16713;52.916;12.834;2022-07-01T10:09:32;100898.91;;;19.32;84.51
29825;BME280;16713;52.916;12.834;2022-07-01T10:14:54;100878.97;;;18.90;86.36
29825;BME280;16713;52.916;12.834;2022-07-01T10:17:30;100893.97;;;19.03;85.52
29825;BME280;16713;52.916;12.834;2022-07-01T10:20:16;100887.28;;;18.93;85.92
29825;BME280;16713;52.916;12.834;2022-07-01T10:22:48;100868.69;;;18.79;86.51
29825;BME280;16713;52.916;12.834;2022-07-01T10:25:31;100856.00;;;18.75;85.92
29825;BME280;16713;52.916;12.834;2022-07-01T10:28:18;100841.97;;;18.24;86.70
29825;BME280;16713;52.916;12.834;2022-07-01T10:31:06;100855.28;;;18.60;86.27
29825;BME280;16713;52.916;12.834;2022-07-01T10:41:27;100890.66;;;18.53;86.13
29825;BME280;16713;52.916;12.834;2022-07-01T10:43:54;100886.75;;;18.36;87.05
29825;BME280;16713;52.916;12.834;2022-07-01T10:47:03;100862.56;;;18.33;86.83
29825;BME280;16713;52.916;12.834;2022-07-01T10:52:10;100883.97;;;18.40;87.39
29825;BME280;16713;52.916;12.834;2022-07-01T10:59:49;100874.16;;;18.07;87.62
29825;BME280;16713;52.916;12.834;2022-07-01T11:02:24;100870.53;;;18.28;87.13
29825;BME280;16713;52.916;12.834;2022-07-01T11:04:54;100865.84;;;17.90;88.42
29825;BME280;16713;52.916;12.834;2022-07-01T11:07:24;100875.38;;;17.78;87.62
29825;BME280;16713;52.916;12.834;2022-07-01T11:09:51;100866.69;;;17.76;88.27
29825;BME280;16713;52.916;12.834;2022-07-01T11:12:20;100880.53;;;17.83;87.98
29825;BME280;16713;52.916;12.834;2022-07-01T11:14:46;100896.41;;;17.72;88.90
29825;BME280;16713;52.916;12.834;2022-07-01T11:17:13;100895.66;;;17.51;88.93
29825;BME280;16713;52.916;12.834;2022-07-01T11:19:47;100891.66;;;17.66;87.78
29825;BME280;16713;52.916;12.834;2022-07-01T11:22:18;100889.28;;;17.43;87.41
29825;BME280;16713;52.916;12.834;2022-07-01T11:24:45;100913.47;;;17.39;88.79
29825;BME280;16713;52.916;12.834;2022-07-01T11:27:12;100903.94;;;17.58;88.30
29825;BME280;16713;52.916;12.834;2022-07-01T11:29:38;100891.28;;;17.53;87.46
29825;BME280;16713;52.916;12.834;2022-07-01T11:32:06;100890.47;;;17.56;87.09
29825;BME280;16713;52.916;12.834;2022-07-01T11:34:35;100888.13;;;17.44;87.62
29825;BME280;16713;52.916;12.834;2022-07-01T11:37:09;100885.72;;;17.46;87.72
29825;BME280;16713;52.916;12.834;2022-07-01T11:40:04;100887.72;;;17.60;87.56
29825;BME280;16713;52.916;12.834;2022-07-01T11:42:33;100890.50;;;17.28;88.39
29825;BME280;16713;52.916;12.834;2022-07-01T11:45:00;100886.91;;;17.13;88.91
29825;BME280;16713;52.916;12.834;2022-07-01T11:47:26;100880.19;;;17.28;88.21
29825;BME280;16713;52.916;12.834;2022-07-01T11:49:54;100850.09;;;17.27;87.87
29825;BME280;16713;52.916;12.834;2022-07-01T11:52:21;100838.22;;;17.23;87.48
29825;BME280;16713;52.916;12.834;2022-07-01T11:54:50;100875.84;;;17.34;87.30
29825;BME280;16713;52.916;12.834;2022-07-01T11:57:22;100881.00;;;17.29;87.72
29825;BME280;16713;52.916;12.834;2022-07-01T11:59:49;100868.72;;;17.37;87.54
29825;BME280;16713;52.916;12.834;2022-07-01T12:02:19;100851.69;;;17.21;87.91
29825;BME280;16713;52.916;12.834;2022-07-01T12:04:49;100843.78;;;17.26;86.65
29825;BME280;16713;52.916;12.834;2022-07-01T12:07:20;100864.31;;;17.15;86.56
29825;BME280;16713;52.916;12.834;2022-07-01T12:09:48;100874.22;;;17.12;86.73
29825;BME280;16713;52.916;12.834;2022-07-01T12:12:20;100891.28;;;17.21;87.47
29825;BME280;16713;52.916;12.834;2022-07-01T12:14:58;100875.81;;;17.20;87.48
29825;BME280;16713;52.916;12.834;2022-07-01T12:17:26;100866.75;;;17.23;87.39
29825;BME280;16713;52.916;12.834;2022-07-01T12:19:53;100865.88;;;16.95;88.74
29825;BME280;16713;52.916;12.834;2022-07-01T12:22:23;100870.69;;;17.36;88.93
29825;BME280;16713;52.916;12.834;2022-07-01T12:24:52;100861.16;;;17.13;89.27
29825;BME280;16713;52.916;12.834;2022-07-01T12:27:22;100861.97;;;17.41;86.88
29825;BME280;16713;52.916;12.834;2022-07-01T12:29:53;100873.84;;;17.35;87.24
29825;BME280;16713;52.916;12.834;2022-07-01T12:32:25;100871.47;;;17.30;87.03
29825;BME280;16713;52.916;12.834;2022-07-01T12:39:55;100848.47;;;16.98;85.83
29825;BME280;16713;52.916;12.834;2022-07-01T12:42:35;100835.03;;;17.10;85.54
29825;BME280;16713;52.916;12.834;2022-07-01T12:45:07;100814.00;;;16.74;86.10
29825;BME280;16713;52.916;12.834;2022-07-01T12:47:36;100822.34;;;17.06;86.26
29825;BME280;16713;52.916;12.834;2022-07-01T12:52:37;100809.69;;;17.15;85.25
29825;BME280;16713;52.916;12.834;2022-07-01T12:55:21;100815.66;;;17.24;85.14
29825;BME280;16713;52.916;12.834;2022-07-01T12:57:51;100821.97;;;17.39;84.87
29825;BME280;16713;52.916;12.834;2022-07-01T13:00:20;100825.88;;;17.59;84.13
29825;BME280;16713;52.916;12.834;2022-07-01T13:02:51;100831.06;;;17.43;84.11
29825;BME280;16713;52.916;12.834;2022-07-01T13:05:18;100835.03;;;17.07;85.08
29825;BME280;16713;52.916;12.834;2022-07-01T13:07:45;100838.16;;;16.95;85.87
29825;BME280;16713;52.916;12.834;2022-07-01T13:10:13;100853.25;;;17.32;84.18
29825;BME280;16713;52.916;12.834;2022-07-01T13:12:40;100871.09;;;17.28;84.56
29825;BME280;16713;52.916;12.834;2022-07-01T13:15:08;100892.03;;;17.11;84.53
29825;BME280;16713;52.916;12.834;2022-07-01T13:17:34;100912.63;;;17.14;84.40
29825;BME280;16713;52.916;12.834;2022-07-01T13:20:04;100906.28;;;17.10;85.06
29825;BME280;16713;52.916;12.834;2022-07-01T13:22:31;100924.06;;;16.95;84.94